Ayr, Canada
Current Conditions -  °F | °C
As of 10:00 AM on Wednesday 22 Oct 2014 (Local Time) from CYKF Reporting Station
Clear Clear  
Wind Chill: 37°   Ceiling: Unl
Heat Index: 43°   Visibility: 9mi
Dew Point: 36°   Wind: 10mph
Humidity: 76%   Direction: 360°N
Pressure: 30.27"   Gusts: NA
Location:  43.28°N, 80.45°W
Report Text: CYKF 221400Z AUTO 36009KT 9SM CLR 06/02 A3027 RMK SLP257
Loading
Personal Weather Stations






























Interactive Weather Map
Tropical Storm Tracking
New forecast layout! Learn more

10-Day Weather Forecast

Advertisements
Track Severe Weather on mobile